Time;durP1;ratioP1;P1;durP2;ratioP2;P2;SDS_P1;SDS_P2;PMS_P1;PMS_P2;Temp;Humidity;BMP_temperature;BMP_pressure;BME280_temperature;BME280_humidity;BME280_pressure;Samples;Min_cycle;Max_cycle;Signal;HPM_P1;HPM_P2
2023/09/05 00:01:57;;;;;;;6.55;4.18;;;24.20;61.40;;;;;;6128304;28;82413;-67
2023/09/05 00:04:58;;;;;;;5.28;3.58;;;24.20;61.60;;;;;;6129870;28;80450;-68
2023/09/05 00:07:58;;;;;;;4.95;3.42;;;24.20;61.50;;;;;;6128585;28;80571;-67
2023/09/05 00:10:59;;;;;;;6.78;4.22;;;24.20;61.40;;;;;;6128479;28;80985;-64
2023/09/05 00:14:00;;;;;;;5.80;3.80;;;24.20;61.40;;;;;;6129744;28;80436;-66
2023/09/05 00:17:01;;;;;;;7.55;3.45;;;24.20;61.30;;;;;;6141814;28;81071;-65
2023/09/05 00:20:01;;;;;;;5.90;4.00;;;24.20;61.20;;;;;;6128163;28;80734;-65
2023/09/05 00:23:02;;;;;;;7.13;4.78;;;24.20;61.30;;;;;;6128228;28;81053;-65
2023/09/05 00:26:02;;;;;;;6.28;3.90;;;24.10;61.30;;;;;;6127995;28;80551;-69
2023/09/05 00:29:03;;;;;;;5.03;3.80;;;24.10;61.20;;;;;;6128374;28;80873;-67
2023/09/05 00:32:03;;;;;;;5.32;3.95;;;24.10;61.20;;;;;;6130233;28;80539;-71
2023/09/05 00:35:04;;;;;;;4.32;3.08;;;24.10;61.20;;;;;;6134558;28;80303;-67
2023/09/05 00:38:04;;;;;;;6.60;4.15;;;24.10;61.20;;;;;;6126418;28;82186;-70
2023/09/05 00:41:05;;;;;;;6.68;3.97;;;24.10;61.20;;;;;;6125901;28;82232;-69
2023/09/05 00:44:05;;;;;;;5.63;3.97;;;24.20;61.20;;;;;;6127486;28;82261;-69
2023/09/05 00:47:06;;;;;;;7.20;4.20;;;24.20;61.30;;;;;;6127617;28;80510;-55
2023/09/05 00:50:07;;;;;;;5.43;3.83;;;24.20;61.40;;;;;;6123137;28;81659;-54
2023/09/05 00:53:08;;;;;;;5.72;4.10;;;24.20;61.40;;;;;;6117783;28;80098;-57
2023/09/05 00:56:08;;;;;;;6.05;3.70;;;24.20;61.40;;;;;;6125928;28;80691;-56
2023/09/05 00:59:09;;;;;;;5.90;4.18;;;24.20;61.40;;;;;;6125147;28;83475;-57
2023/09/05 01:02:09;;;;;;;5.10;3.90;;;24.10;61.40;;;;;;6125199;28;83721;-57
2023/09/05 01:05:10;;;;;;;6.25;3.95;;;24.10;61.50;;;;;;6120462;28;85617;-69
2023/09/05 01:08:11;;;;;;;5.32;4.13;;;24.20;61.60;;;;;;6127045;28;80966;-72
2023/09/05 01:11:12;;;;;;;7.85;4.63;;;24.10;61.30;;;;;;6126712;28;81366;-71
2023/09/05 01:14:13;;;;;;;5.43;4.03;;;24.10;61.30;;;;;;6124958;28;83859;-73
2023/09/05 01:17:14;;;;;;;6.38;4.07;;;24.10;61.40;;;;;;6141161;28;83232;-74
2023/09/05 01:20:16;;;;;;;8.35;3.90;;;24.10;61.40;;;;;;6140789;28;80057;-74
2023/09/05 01:23:17;;;;;;;7.03;4.22;;;24.10;61.30;;;;;;6129732;28;82004;-57
2023/09/05 01:26:18;;;;;;;6.53;4.40;;;24.10;61.40;;;;;;6125611;28;83928;-56
2023/09/05 01:29:29;;;;;;;5.18;4.03;;;24.10;61.40;;;;;;6121602;28;80851;-56
2023/09/05 01:32:30;;;;;;;6.93;3.65;;;24.10;61.50;;;;;;6124637;28;82072;-57
2023/09/05 01:35:30;;;;;;;7.68;4.20;;;24.10;61.30;;;;;;6136759;28;86759;-55
2023/09/05 01:38:31;;;;;;;5.40;3.80;;;24.10;61.40;;;;;;6122592;28;83477;-55
2023/09/05 01:41:32;;;;;;;5.38;3.92;;;24.10;61.40;;;;;;6128729;28;82349;-68
2023/09/05 01:44:36;;;;;;;5.82;3.78;;;24.10;61.20;;;;;;6122564;28;84246;-72
2023/09/05 01:47:37;;;;;;;7.43;4.23;;;24.10;61.30;;;;;;6129629;28;80158;-71
2023/09/05 01:50:38;;;;;;;7.35;3.80;;;24.10;61.20;;;;;;6132012;28;80496;-72
2023/09/05 01:53:38;;;;;;;5.22;4.13;;;24.10;61.20;;;;;;6126710;28;82168;-70
2023/09/05 01:56:39;;;;;;;7.72;4.10;;;24.10;61.50;;;;;;6126099;28;84097;-67
2023/09/05 01:59:39;;;;;;;6.07;4.20;;;24.10;61.10;;;;;;6105623;28;83194;-70
2023/09/05 02:02:40;;;;;;;8.10;4.03;;;24.10;61.00;;;;;;6120336;28;83621;-70
2023/09/05 02:05:40;;;;;;;5.68;3.75;;;24.10;61.00;;;;;;6116677;28;83793;-71
2023/09/05 02:08:42;;;;;;;5.10;3.50;;;24.10;60.90;;;;;;6125335;28;80764;-70
2023/09/05 02:11:43;;;;;;;7.10;3.72;;;24.10;60.90;;;;;;6129343;28;83532;-69
2023/09/05 02:14:47;;;;;;;7.75;4.13;;;24.10;60.80;;;;;;6128794;28;80472;-70
2023/09/05 02:17:47;;;;;;;5.80;3.53;;;24.10;60.80;;;;;;6131112;28;80963;-66
2023/09/05 02:20:48;;;;;;;5.63;3.60;;;24.00;60.80;;;;;;6130922;28;80548;-66
2023/09/05 02:23:48;;;;;;;5.35;4.15;;;24.00;61.50;;;;;;6130761;28;81812;-67
2023/09/05 02:26:49;;;;;;;6.18;3.85;;;24.00;60.80;;;;;;6113308;28;83229;-66
2023/09/05 02:29:56;;;;;;;6.30;4.10;;;24.00;60.80;;;;;;6130814;28;80801;-66
2023/09/05 02:32:56;;;;;;;6.60;4.20;;;24.00;60.80;;;;;;6139146;28;80008;-66
2023/09/05 02:35:57;;;;;;;7.93;4.00;;;24.00;60.80;;;;;;6128411;28;82534;-56
2023/09/05 02:38:58;;;;;;;6.88;4.07;;;24.00;60.80;;;;;;6136749;28;80073;-58
2023/09/05 02:41:58;;;;;;;5.50;3.97;;;24.00;60.70;;;;;;6135256;28;80446;-57
2023/09/05 02:44:59;;;;;;;6.15;4.20;;;24.00;60.80;;;;;;6138772;28;82017;-59
2023/09/05 02:47:59;;;;;;;5.72;3.92;;;24.00;60.80;;;;;;6128320;28;82424;-58
2023/09/05 02:51:00;;;;;;;6.35;3.88;;;24.00;60.70;;;;;;6121901;28;81641;-58
2023/09/05 02:54:00;;;;;;;6.32;4.07;;;24.10;60.70;;;;;;6128634;28;82424;-57
2023/09/05 02:57:01;;;;;;;5.90;3.72;;;24.10;60.60;;;;;;6130976;28;81145;-57
2023/09/05 03:00:02;;;;;;;7.72;4.22;;;24.00;60.60;;;;;;6127720;28;82132;-56
2023/09/05 03:03:02;;;;;;;5.72;4.07;;;24.00;60.60;;;;;;6130485;28;80602;-57
2023/09/05 03:06:03;;;;;;;9.50;4.68;;;24.00;60.50;;;;;;6127725;28;81199;-58
2023/09/05 03:09:04;;;;;;;7.85;3.80;;;24.10;60.50;;;;;;6128445;28;83931;-58
2023/09/05 03:12:05;;;;;;;7.07;4.13;;;24.00;60.50;;;;;;6126272;28;81928;-50
2023/09/05 03:15:06;;;;;;;8.88;5.15;;;24.00;60.50;;;;;;6126589;28;83058;-46
2023/09/05 03:18:07;;;;;;;5.95;4.13;;;24.00;60.50;;;;;;6127454;28;82473;-48
2023/09/05 03:21:07;;;;;;;5.47;3.83;;;24.00;60.50;;;;;;6126818;28;80688;-47
2023/09/05 03:24:08;;;;;;;6.43;4.00;;;24.00;60.50;;;;;;6125433;28;81886;-50
2023/09/05 03:27:09;;;;;;;5.75;3.67;;;24.00;60.50;;;;;;6127961;28;80606;-49
2023/09/05 03:30:09;;;;;;;5.45;3.63;;;24.00;60.50;;;;;;6126144;28;81369;-47
2023/09/05 03:33:10;;;;;;;6.80;4.50;;;24.00;60.50;;;;;;6124093;28;80464;-51
2023/09/05 03:36:11;;;;;;;4.80;3.97;;;24.00;60.60;;;;;;6129023;28;80503;-53
2023/09/05 03:39:11;;;;;;;7.43;3.97;;;24.00;60.20;;;;;;6128442;28;80607;-50
2023/09/05 03:42:12;;;;;;;4.63;3.58;;;24.00;60.30;;;;;;6129744;28;80500;-53
2023/09/05 03:45:12;;;;;;;6.03;4.68;;;24.00;60.10;;;;;;6135233;28;80847;-50
2023/09/05 03:48:13;;;;;;;6.28;4.35;;;24.00;60.20;;;;;;6126006;28;80996;-53
2023/09/05 03:51:14;;;;;;;5.70;4.05;;;24.00;60.10;;;;;;6112729;28;83907;-50
2023/09/05 03:54:14;;;;;;;7.18;4.25;;;24.00;60.00;;;;;;6126553;28;80937;-52
2023/09/05 03:57:16;;;;;;;7.47;4.28;;;24.00;60.00;;;;;;6126954;28;82385;-48
2023/09/05 04:00:19;;;;;;;5.40;3.97;;;24.00;60.00;;;;;;6127447;28;80574;-51
2023/09/05 04:03:20;;;;;;;8.13;4.57;;;24.00;60.00;;;;;;6131713;28;83662;-48
2023/09/05 04:06:21;;;;;;;10.13;4.53;;;23.90;59.90;;;;;;6133119;28;86575;-59
2023/09/05 04:09:21;;;;;;;9.27;4.13;;;23.90;59.90;;;;;;6129268;28;80940;-54
2023/09/05 04:12:22;;;;;;;7.15;4.65;;;23.90;60.00;;;;;;6126015;28;82668;-50
2023/09/05 04:15:23;;;;;;;6.20;4.20;;;23.90;60.10;;;;;;6128369;28;81339;-51
2023/09/05 04:18:23;;;;;;;24.92;4.38;;;24.00;60.60;;;;;;6126811;28;81741;-56
2023/09/05 04:21:24;;;;;;;13.77;4.25;;;24.00;60.70;;;;;;6124637;28;83545;-50
2023/09/05 04:24:24;;;;;;;12.32;5.25;;;24.00;60.70;;;;;;6132291;28;83696;-58
2023/09/05 04:27:27;;;;;;;5.63;4.28;;;24.00;60.60;;;;;;6117375;28;82725;-48
2023/09/05 04:30:28;;;;;;;9.85;4.00;;;24.00;60.40;;;;;;6122794;28;83550;-51
2023/09/05 04:33:37;;;;;;;13.05;4.40;;;24.00;60.60;;;;;;6123052;28;80835;-51
2023/09/05 04:36:38;;;;;;;9.48;4.60;;;24.00;60.60;;;;;;6121491;28;82983;-50
2023/09/05 04:39:39;;;;;;;15.77;4.65;;;24.00;60.70;;;;;;6126614;28;81091;-48
2023/09/05 04:42:40;;;;;;;10.38;4.45;;;24.00;61.00;;;;;;6117021;28;81789;-50
2023/09/05 04:45:41;;;;;;;14.15;4.93;;;24.00;60.90;;;;;;6127417;28;80880;-48
2023/09/05 04:48:41;;;;;;;14.90;4.45;;;24.00;60.90;;;;;;6123642;28;81259;-50
2023/09/05 04:51:42;;;;;;;11.10;4.85;;;24.00;60.80;;;;;;6121892;28;81159;-50
2023/09/05 04:54:42;;;;;;;5.65;3.75;;;24.00;60.60;;;;;;6125375;28;80665;-49
2023/09/05 04:57:43;;;;;;;12.07;4.97;;;24.00;60.60;;;;;;6125720;28;80591;-47
2023/09/05 05:00:43;;;;;;;6.30;4.07;;;24.00;60.50;;;;;;6127598;28;82720;-48
2023/09/05 05:03:44;;;;;;;8.75;4.03;;;24.00;60.40;;;;;;6125583;28;81431;-50
2023/09/05 05:06:44;;;;;;;10.32;4.45;;;24.00;60.30;;;;;;6123761;28;80517;-49
2023/09/05 05:09:45;;;;;;;10.45;4.90;;;24.00;60.20;;;;;;6124823;28;82056;-47
2023/09/05 05:12:45;;;;;;;7.93;4.40;;;24.00;60.10;;;;;;6122772;28;80864;-48
2023/09/05 05:15:46;;;;;;;9.55;4.72;;;24.00;60.10;;;;;;6126194;28;80657;-53
2023/09/05 05:18:47;;;;;;;10.05;4.53;;;24.00;60.00;;;;;;6136404;28;80295;-48
2023/09/05 05:21:47;;;;;;;13.10;4.63;;;24.00;60.00;;;;;;6108800;28;81135;-52
2023/09/05 05:24:48;;;;;;;12.88;5.32;;;24.00;60.00;;;;;;6115991;28;86293;-50
2023/09/05 05:27:49;;;;;;;10.13;4.80;;;24.00;59.80;;;;;;6126425;28;82168;-47
2023/09/05 05:30:50;;;;;;;8.25;5.00;;;24.00;59.80;;;;;;6123879;28;81106;-49
2023/09/05 05:33:50;;;;;;;8.80;5.38;;;24.00;59.70;;;;;;6122920;28;81243;-51
2023/09/05 05:36:51;;;;;;;7.57;4.13;;;24.00;59.70;;;;;;6139360;28;80446;-50
2023/09/05 05:39:51;;;;;;;10.82;5.07;;;24.00;59.70;;;;;;6125682;28;80967;-70
2023/09/05 05:42:52;;;;;;;9.90;4.80;;;24.00;59.70;;;;;;6127629;28;80419;-70
2023/09/05 05:45:52;;;;;;;5.80;4.25;;;24.00;59.60;;;;;;6125713;28;80329;-70
2023/09/05 05:48:56;;;;;;;9.27;5.30;;;24.00;59.60;;;;;;6130299;28;81835;-68
2023/09/05 05:51:57;;;;;;;9.13;5.25;;;24.00;59.70;;;;;;6123025;28;85224;-68
2023/09/05 05:54:57;;;;;;;7.13;4.78;;;24.00;59.60;;;;;;6130673;28;80974;-72
2023/09/05 05:57:58;;;;;;;7.90;4.70;;;24.00;59.50;;;;;;6130385;28;81183;-65
2023/09/05 06:00:59;;;;;;;7.88;5.18;;;24.00;59.50;;;;;;6129668;28;81019;-67
2023/09/05 06:04:00;;;;;;;9.52;4.55;;;24.00;59.50;;;;;;6129758;28;80858;-67
2023/09/05 06:07:00;;;;;;;8.02;5.13;;;24.00;59.50;;;;;;6142628;28;80619;-65
2023/09/05 06:10:01;;;;;;;9.35;5.00;;;24.00;59.40;;;;;;6131994;28;80592;-65
2023/09/05 06:13:01;;;;;;;9.40;4.50;;;24.00;59.30;;;;;;6130367;28;80417;-66
2023/09/05 06:16:02;;;;;;;9.10;5.43;;;24.00;59.40;;;;;;6143321;28;81048;-49
2023/09/05 06:19:02;;;;;;;11.18;5.25;;;24.00;59.40;;;;;;6128966;28;80621;-48
2023/09/05 06:22:03;;;;;;;10.15;4.70;;;24.00;59.30;;;;;;6131574;28;80908;-46
2023/09/05 06:25:05;;;;;;;7.60;5.07;;;24.00;59.30;;;;;;6129205;28;80796;-50
2023/09/05 06:28:06;;;;;;;11.98;5.15;;;24.00;59.20;;;;;;6131120;28;81087;-49
2023/09/05 06:31:06;;;;;;;10.55;5.85;;;24.00;59.20;;;;;;6131440;28;80801;-48
2023/09/05 06:34:06;;;;;;;11.35;5.72;;;24.10;59.20;;;;;;6128502;28;80939;-47
2023/09/05 06:37:07;;;;;;;12.60;5.47;;;24.10;59.20;;;;;;6130584;28;80293;-49
2023/09/05 06:40:09;;;;;;;5.75;4.72;;;24.10;59.20;;;;;;6129677;28;81417;-53
2023/09/05 06:43:10;;;;;;;10.23;5.30;;;24.10;59.20;;;;;;6130516;28;81119;-49
2023/09/05 06:46:10;;;;;;;7.07;5.00;;;24.10;59.10;;;;;;6128341;28;82231;-51
2023/09/05 06:49:11;;;;;;;8.48;5.20;;;24.10;59.20;;;;;;6130153;28;80774;-50
2023/09/05 06:52:11;;;;;;;8.55;5.38;;;24.10;59.10;;;;;;6123543;28;81263;-66
2023/09/05 06:55:12;;;;;;;8.95;4.93;;;24.10;59.10;;;;;;6139577;28;81549;-66
2023/09/05 06:58:12;;;;;;;8.70;5.30;;;24.10;59.10;;;;;;6128221;28;83443;-68
2023/09/05 07:01:13;;;;;;;10.23;5.85;;;24.10;59.20;;;;;;6130650;28;81075;-67
2023/09/05 07:04:14;;;;;;;9.00;4.55;;;24.10;59.20;;;;;;6130781;28;81759;-67
2023/09/05 07:07:15;;;;;;;8.50;5.47;;;24.10;59.20;;;;;;6131210;28;81199;-68
2023/09/05 07:10:16;;;;;;;7.22;5.30;;;24.10;59.20;;;;;;6131279;28;87973;-70
2023/09/05 07:13:16;;;;;;;9.80;4.78;;;24.20;59.20;;;;;;6129295;28;80843;-59
2023/09/05 07:16:17;;;;;;;9.23;5.63;;;24.10;59.20;;;;;;6115033;28;81311;-57
2023/09/05 07:19:18;;;;;;;9.93;5.35;;;24.10;59.40;;;;;;6129569;28;80599;-55
2023/09/05 07:22:18;;;;;;;9.00;5.25;;;24.20;59.40;;;;;;6129611;28;80590;-57
2023/09/05 07:25:19;;;;;;;8.52;5.10;;;24.10;59.40;;;;;;6129759;28;80584;-56
2023/09/05 07:28:19;;;;;;;7.63;4.70;;;24.20;59.50;;;;;;6130223;28;81738;-56
2023/09/05 07:31:20;;;;;;;11.02;5.72;;;24.20;59.40;;;;;;6129231;28;81975;-50
2023/09/05 07:34:20;;;;;;;8.75;5.05;;;24.20;59.50;;;;;;6126465;28;80315;-51
2023/09/05 07:37:21;;;;;;;8.15;5.57;;;24.10;59.40;;;;;;6128222;28;80918;-50
2023/09/05 07:40:22;;;;;;;7.65;4.45;;;24.10;59.50;;;;;;6128924;28;80831;-49
2023/09/05 07:43:23;;;;;;;10.35;5.60;;;24.20;59.60;;;;;;6128042;28;80546;-47
2023/09/05 07:46:23;;;;;;;11.60;5.65;;;24.20;59.50;;;;;;6130261;28;80882;-49
2023/09/05 07:49:24;;;;;;;8.52;5.32;;;24.20;59.40;;;;;;6129360;28;80757;-48
2023/09/05 07:52:25;;;;;;;6.50;4.60;;;24.20;59.30;;;;;;6121163;28;80379;-49
2023/09/05 07:55:25;;;;;;;9.10;5.13;;;24.20;59.30;;;;;;6130156;28;80646;-48
2023/09/05 07:58:26;;;;;;;9.85;4.30;;;24.20;59.40;;;;;;6127895;28;82952;-48
2023/09/05 08:01:27;;;;;;;7.32;4.72;;;24.20;59.30;;;;;;6129385;28;80216;-47
2023/09/05 08:04:29;;;;;;;8.85;4.93;;;24.20;59.30;;;;;;6129054;28;80861;-51
2023/09/05 08:07:29;;;;;;;8.50;4.75;;;24.30;59.50;;;;;;6128637;28;81234;-49
2023/09/05 08:10:30;;;;;;;10.32;4.70;;;24.20;59.50;;;;;;6128423;28;81467;-51
2023/09/05 08:13:30;;;;;;;8.57;4.75;;;24.30;59.70;;;;;;6128534;28;80838;-49
2023/09/05 08:16:31;;;;;;;7.90;5.45;;;24.30;59.50;;;;;;6128222;28;87644;-51
2023/09/05 08:19:31;;;;;;;9.27;4.75;;;24.30;59.60;;;;;;6127795;28;80765;-49
2023/09/05 08:22:32;;;;;;;7.05;4.47;;;24.30;59.60;;;;;;6127460;28;80411;-51
2023/09/05 08:25:32;;;;;;;7.82;4.18;;;24.30;60.10;;;;;;6129564;28;80903;-51
2023/09/05 08:28:35;;;;;;;6.88;4.43;;;24.30;59.50;;;;;;6140972;28;80455;-53
2023/09/05 08:31:36;;;;;;;5.13;4.22;;;24.40;59.60;;;;;;6127186;28;80717;-50
2023/09/05 08:34:37;;;;;;;10.07;4.65;;;24.40;59.70;;;;;;6139282;28;80392;-52
2023/09/05 08:37:37;;;;;;;5.22;3.90;;;24.40;59.60;;;;;;6129976;28;81602;-50
2023/09/05 08:40:39;;;;;;;9.43;4.85;;;24.40;59.60;;;;;;6127886;28;80408;-50
2023/09/05 08:43:39;;;;;;;7.07;4.47;;;24.40;59.90;;;;;;6128598;28;81451;-68
2023/09/05 08:46:40;;;;;;;7.30;4.53;;;24.40;59.90;;;;;;6127423;28;82882;-69
2023/09/05 08:49:40;;;;;;;6.28;4.45;;;24.40;60.00;;;;;;6127677;28;80466;-70
2023/09/05 08:52:41;;;;;;;8.30;4.95;;;24.40;59.90;;;;;;6124973;28;81380;-72
2023/09/05 08:55:41;;;;;;;9.13;4.30;;;24.40;59.80;;;;;;6130054;28;80568;-68
2023/09/05 08:58:42;;;;;;;8.32;3.90;;;24.40;59.80;;;;;;6141884;28;80791;-72
2023/09/05 09:01:44;;;;;;;7.07;4.40;;;24.40;59.90;;;;;;6128489;28;81081;-71
2023/09/05 09:04:44;;;;;;;5.25;3.90;;;24.50;59.80;;;;;;6128777;28;80783;-72
2023/09/05 09:07:45;;;;;;;5.38;3.90;;;24.60;59.80;;;;;;6127973;28;80748;-71
2023/09/05 09:10:45;;;;;;;5.38;3.92;;;24.50;59.70;;;;;;6139943;28;80889;-71
2023/09/05 09:13:46;;;;;;;6.40;4.32;;;24.50;59.80;;;;;;6127199;28;80559;-73
2023/09/05 09:16:46;;;;;;;5.30;4.07;;;24.60;59.70;;;;;;6127776;28;80296;-72
2023/09/05 09:19:47;;;;;;;5.03;3.92;;;24.60;59.70;;;;;;6128495;28;80403;-48
2023/09/05 09:22:50;;;;;;;5.50;4.00;;;24.60;59.80;;;;;;6130890;28;81444;-48
2023/09/05 09:25:51;;;;;;;8.55;4.38;;;24.60;59.80;;;;;;6131096;28;81302;-52
2023/09/05 09:28:52;;;;;;;4.88;3.83;;;24.60;59.90;;;;;;6132540;28;80929;-52
2023/09/05 09:31:53;;;;;;;6.30;3.92;;;24.70;59.60;;;;;;6128979;28;80465;-48
2023/09/05 09:34:53;;;;;;;6.05;3.88;;;24.60;59.60;;;;;;6142828;28;80420;-51
2023/09/05 09:37:54;;;;;;;5.45;3.90;;;24.70;59.90;;;;;;6144022;28;80554;-49
2023/09/05 09:40:55;;;;;;;7.05;4.05;;;24.70;59.70;;;;;;6132763;28;81381;-49
2023/09/05 09:43:55;;;;;;;5.65;3.67;;;24.70;59.60;;;;;;6143941;28;81438;-50
2023/09/05 09:46:56;;;;;;;4.80;3.88;;;24.70;59.70;;;;;;6130571;28;80868;-48
2023/09/05 09:49:57;;;;;;;6.57;4.22;;;24.70;59.50;;;;;;6130694;28;80913;-48
2023/09/05 09:52:57;;;;;;;5.90;4.15;;;24.70;59.80;;;;;;6123139;28;80258;-49
2023/09/05 09:55:57;;;;;;;5.25;4.15;;;24.70;59.50;;;;;;6129803;28;82285;-48
2023/09/05 09:58:59;;;;;;;5.32;3.67;;;24.80;59.50;;;;;;6132259;28;80631;-51
2023/09/05 10:01:59;;;;;;;10.27;3.80;;;24.80;59.60;;;;;;6130483;28;80814;-47
2023/09/05 10:04:59;;;;;;;5.68;3.67;;;24.80;59.50;;;;;;6130978;28;81345;-51
2023/09/05 10:08:00;;;;;;;4.10;3.55;;;24.80;59.40;;;;;;6137371;28;80945;-51
2023/09/05 10:11:01;;;;;;;5.20;3.67;;;24.80;59.50;;;;;;6136175;28;80807;-48
2023/09/05 10:14:01;;;;;;;6.53;3.75;;;24.90;59.40;;;;;;6131028;28;80376;-50
2023/09/05 10:17:02;;;;;;;7.05;3.85;;;24.90;59.60;;;;;;6131278;28;80979;-50
2023/09/05 10:20:02;;;;;;;5.50;3.58;;;24.90;59.50;;;;;;6131472;28;80857;-53
2023/09/05 10:23:05;;;;;;;8.52;3.70;;;24.90;59.60;;;;;;6130318;28;80523;-50
2023/09/05 10:26:07;;;;;;;3.40;3.03;;;24.90;59.60;;;;;;6128397;28;81737;-51
2023/09/05 10:29:07;;;;;;;4.55;3.40;;;24.90;59.60;;;;;;6131398;28;80552;-48
2023/09/05 10:32:08;;;;;;;4.60;3.58;;;24.90;59.30;;;;;;6127196;28;83669;-47
2023/09/05 10:35:08;;;;;;;5.43;3.28;;;25.00;59.40;;;;;;6130522;28;80869;-47
2023/09/05 10:38:09;;;;;;;6.57;3.42;;;25.00;59.20;;;;;;6142722;28;80641;-49
2023/09/05 10:41:09;;;;;;;4.03;3.08;;;25.00;59.20;;;;;;6131236;28;80695;-49
2023/09/05 10:44:10;;;;;;;9.10;3.63;;;25.00;59.20;;;;;;6139525;28;80751;-50
2023/09/05 10:47:11;;;;;;;5.18;3.28;;;25.00;59.10;;;;;;6133099;28;82708;-48
2023/09/05 10:50:12;;;;;;;4.35;3.05;;;25.10;59.10;;;;;;6130109;28;81010;-48
2023/09/05 10:53:12;;;;;;;5.40;3.25;;;25.10;59.20;;;;;;6124583;28;80148;-56
2023/09/05 10:56:13;;;;;;;3.85;3.20;;;25.10;59.00;;;;;;6128435;28;81474;-56
2023/09/05 10:59:13;;;;;;;4.95;3.28;;;25.10;59.00;;;;;;6132932;28;80574;-57
2023/09/05 11:02:14;;;;;;;3.92;3.03;;;25.10;59.10;;;;;;6129946;28;80464;-57
2023/09/05 11:05:18;;;;;;;4.95;3.03;;;25.10;59.00;;;;;;6128822;28;80287;-58
2023/09/05 11:08:19;;;;;;;6.15;3.55;;;25.10;58.90;;;;;;6133271;28;81232;-58
2023/09/05 11:11:20;;;;;;;3.25;2.85;;;25.10;59.00;;;;;;6142208;28;80704;-72
2023/09/05 11:14:21;;;;;;;4.15;3.08;;;25.10;59.00;;;;;;6130688;28;80295;-73
2023/09/05 11:17:21;;;;;;;4.75;3.38;;;25.10;58.70;;;;;;6142015;28;80837;-72
2023/09/05 11:20:22;;;;;;;5.15;3.33;;;25.10;58.80;;;;;;6142590;28;81004;-73
2023/09/05 11:23:25;;;;;;;4.25;3.05;;;25.10;58.70;;;;;;6130160;28;86048;-72
2023/09/05 11:26:26;;;;;;;3.60;3.08;;;25.10;58.80;;;;;;6130319;28;80920;-72
2023/09/05 11:29:28;;;;;;;4.45;3.42;;;25.10;58.70;;;;;;6140797;28;80342;-50
2023/09/05 11:32:29;;;;;;;3.72;2.60;;;25.10;58.50;;;;;;6127383;28;83049;-51
2023/09/05 11:35:29;;;;;;;5.60;3.45;;;25.10;58.40;;;;;;6129551;28;80426;-49
2023/09/05 11:38:32;;;;;;;3.50;2.95;;;25.10;58.40;;;;;;6132630;28;80599;-46
2023/09/05 11:41:33;;;;;;;3.72;3.17;;;25.10;58.20;;;;;;6149564;28;81113;-48
2023/09/05 11:44:34;;;;;;;5.50;3.30;;;25.10;58.10;;;;;;6128507;28;80555;-49
2023/09/05 11:47:35;;;;;;;5.05;3.05;;;25.10;58.00;;;;;;6141601;28;80551;-65
2023/09/05 11:50:35;;;;;;;3.83;2.88;;;25.10;58.00;;;;;;6127251;28;83659;-66
2023/09/05 11:53:36;;;;;;;3.63;3.00;;;25.20;57.80;;;;;;6137157;28;81042;-66
2023/09/05 11:56:37;;;;;;;5.82;3.38;;;25.20;57.90;;;;;;6141494;28;80233;-66
2023/09/05 11:59:38;;;;;;;4.32;3.00;;;25.10;58.00;;;;;;6135443;28;81428;-65
2023/09/05 12:02:38;;;;;;;6.40;3.30;;;25.10;58.00;;;;;;6129072;28;80243;-65
2023/09/05 12:05:39;;;;;;;4.15;3.40;;;25.20;58.10;;;;;;6129195;28;80660;-72
2023/09/05 12:08:39;;;;;;;4.47;3.15;;;25.20;57.90;;;;;;6129944;28;80932;-71
2023/09/05 12:11:40;;;;;;;4.78;2.95;;;25.20;58.00;;;;;;6129286;28;80378;-72
2023/09/05 12:14:40;;;;;;;3.47;2.80;;;25.20;57.80;;;;;;6127460;28;80815;-72
2023/09/05 12:17:43;;;;;;;3.30;2.85;;;25.20;57.80;;;;;;6129569;28;80447;-72
2023/09/05 12:20:44;;;;;;;3.83;2.85;;;25.20;57.90;;;;;;6127499;28;84378;-72
2023/09/05 12:23:44;;;;;;;3.05;2.60;;;25.20;57.90;;;;;;6129885;28;81214;-65
2023/09/05 12:26:45;;;;;;;4.55;2.92;;;25.20;58.00;;;;;;6129288;28;80315;-65
2023/09/05 12:29:45;;;;;;;4.57;2.75;;;25.20;58.10;;;;;;6128754;28;80645;-65
2023/09/05 12:32:46;;;;;;;3.78;2.72;;;25.20;58.10;;;;;;6139811;28;86780;-66
2023/09/05 12:35:46;;;;;;;4.45;3.20;;;25.20;57.90;;;;;;6128536;28;80410;-65
2023/09/05 12:38:47;;;;;;;3.70;2.83;;;25.20;58.00;;;;;;6129018;28;80466;-65
2023/09/05 12:41:47;;;;;;;5.55;2.75;;;25.20;58.10;;;;;;6127642;28;80899;-48
2023/09/05 12:44:48;;;;;;;2.50;2.30;;;25.20;58.10;;;;;;6127662;28;81122;-48
2023/09/05 12:47:52;;;;;;;3.20;2.90;;;25.20;58.20;;;;;;6128374;28;81243;-49
2023/09/05 12:50:53;;;;;;;3.45;3.00;;;25.20;58.90;;;;;;6124118;28;81254;-50
2023/09/05 12:53:54;;;;;;;4.13;3.10;;;25.20;58.30;;;;;;6128252;28;80271;-47
2023/09/05 12:56:54;;;;;;;4.78;3.05;;;25.20;58.50;;;;;;6127688;28;81165;-47
2023/09/05 12:59:55;;;;;;;2.97;2.65;;;25.20;58.40;;;;;;6128027;28;82409;-52
2023/09/05 13:02:57;;;;;;;4.25;2.60;;;25.20;58.30;;;;;;6127656;28;86735;-49
2023/09/05 13:05:57;;;;;;;3.83;2.78;;;25.20;58.30;;;;;;6128594;28;81750;-51
2023/09/05 13:08:58;;;;;;;3.13;2.65;;;25.20;58.20;;;;;;6128319;28;81508;-49
2023/09/05 13:11:58;;;;;;;4.32;3.00;;;25.20;58.20;;;;;;6127463;28;80217;-50
2023/09/05 13:14:59;;;;;;;4.10;2.95;;;25.20;58.10;;;;;;6126845;28;80521;-50
2023/09/05 13:17:59;;;;;;;5.00;3.65;;;25.20;58.10;;;;;;6128126;28;81405;-58
2023/09/05 13:21:00;;;;;;;3.50;2.90;;;25.30;58.20;;;;;;6126580;28;81961;-58
2023/09/05 13:24:00;;;;;;;4.25;3.00;;;25.20;58.10;;;;;;6127600;28;80266;-57
2023/09/05 13:27:01;;;;;;;3.28;2.63;;;25.30;58.10;;;;;;6128035;28;82005;-58
2023/09/05 13:30:05;;;;;;;2.70;2.50;;;25.20;58.00;;;;;;6127042;28;80584;-56
2023/09/05 13:33:05;;;;;;;3.20;2.80;;;25.20;58.10;;;;;;6114754;28;80710;-57
2023/09/05 13:36:07;;;;;;;3.65;3.00;;;25.30;58.00;;;;;;6125807;28;88078;-57
2023/09/05 13:39:09;;;;;;;4.57;3.03;;;25.20;57.80;;;;;;6127124;28;80463;-57
2023/09/05 13:42:09;;;;;;;2.80;2.30;;;25.20;57.90;;;;;;6127700;28;81747;-58
2023/09/05 13:45:10;;;;;;;3.55;3.05;;;25.20;57.80;;;;;;6126682;28;81136;-57
2023/09/05 13:48:10;;;;;;;3.03;2.70;;;25.20;57.80;;;;;;6125583;28;80202;-58
2023/09/05 13:51:11;;;;;;;3.28;2.60;;;25.20;57.90;;;;;;6120769;28;80403;-57
2023/09/05 13:54:11;;;;;;;3.78;2.78;;;25.20;57.90;;;;;;6127057;28;80338;-50
2023/09/05 13:57:12;;;;;;;4.55;2.67;;;25.20;58.20;;;;;;6127274;28;80874;-50
2023/09/05 14:00:12;;;;;;;2.85;2.53;;;25.10;58.00;;;;;;6125432;28;81063;-46
2023/09/05 14:03:13;;;;;;;9.10;2.75;;;25.20;58.20;;;;;;6127818;28;80851;-48
2023/09/05 14:06:14;;;;;;;4.97;2.78;;;25.20;58.80;;;;;;6124037;28;81931;-46
2023/09/05 14:09:15;;;;;;;3.97;2.75;;;25.20;58.30;;;;;;6124231;28;80687;-50
2023/09/05 14:12:18;;;;;;;7.53;3.08;;;25.20;57.70;;;;;;6131192;28;80898;-45
2023/09/05 14:15:18;;;;;;;7.97;3.22;;;25.10;57.40;;;;;;6129047;28;85636;-64
2023/09/05 14:18:19;;;;;;;14.45;4.28;;;25.10;55.00;;;;;;6134235;28;80722;-64
2023/09/05 14:21:20;;;;;;;8.57;3.78;;;25.10;53.00;;;;;;6126965;28;81986;-64
2023/09/05 14:24:21;;;;;;;9.48;3.42;;;25.10;53.30;;;;;;6129972;28;80992;-65
2023/09/05 14:27:21;;;;;;;7.90;3.78;;;25.10;53.90;;;;;;6138564;28;84785;-62
2023/09/05 14:30:22;;;;;;;6.03;3.13;;;25.10;53.40;;;;;;6130766;28;80251;-70
2023/09/05 14:33:22;;;;;;;4.95;3.05;;;25.10;53.20;;;;;;6135383;28;83790;-68
2023/09/05 14:36:25;;;;;;;5.07;3.25;;;25.10;53.20;;;;;;6127670;28;82799;-67
2023/09/05 14:39:26;;;;;;;8.80;3.80;;;25.10;52.40;;;;;;6131207;28;81537;-66
2023/09/05 14:42:27;;;;;;;4.90;3.30;;;25.10;53.20;;;;;;6132668;28;80719;-67
2023/09/05 14:45:28;;;;;;;5.32;3.53;;;25.10;53.10;;;;;;6128091;28;80921;-71
2023/09/05 14:48:28;;;;;;;4.88;3.55;;;25.10;52.90;;;;;;6114551;28;83372;-63
2023/09/05 14:51:29;;;;;;;7.07;3.47;;;25.10;53.10;;;;;;6120925;28;80701;-74
2023/09/05 14:54:30;;;;;;;5.22;3.50;;;25.10;53.00;;;;;;6133546;28;80823;-69
2023/09/05 14:57:30;;;;;;;4.85;3.60;;;25.20;52.60;;;;;;6124610;28;80471;-68
2023/09/05 15:00:31;;;;;;;7.25;3.50;;;25.30;53.10;;;;;;6127632;28;85156;-71
2023/09/05 15:03:31;;;;;;;16.35;4.55;;;25.20;53.40;;;;;;6119440;28;80527;-73
2023/09/05 15:06:32;;;;;;;7.75;4.22;;;25.20;54.30;;;;;;6112154;28;80567;-69
2023/09/05 15:09:32;;;;;;;6.72;4.07;;;25.20;53.10;;;;;;6123557;28;81232;-49
2023/09/05 15:12:33;;;;;;;4.13;3.10;;;25.20;52.10;;;;;;6118704;28;80623;-52
2023/09/05 15:15:33;;;;;;;9.80;3.30;;;25.20;52.50;;;;;;6121292;28;80626;-48
2023/09/05 15:18:35;;;;;;;14.18;3.83;;;25.20;52.00;;;;;;6119608;28;81140;-48
2023/09/05 15:21:38;;;;;;;11.60;4.13;;;25.20;53.10;;;;;;6111332;28;80951;-49
2023/09/05 15:24:39;;;;;;;4.65;3.22;;;25.20;53.30;;;;;;6116899;28;81256;-49
2023/09/05 15:27:39;;;;;;;9.63;3.85;;;25.20;53.50;;;;;;6115128;28;81744;-50
2023/09/05 15:30:40;;;;;;;6.50;3.35;;;25.20;54.00;;;;;;6122612;28;81873;-51
2023/09/05 15:33:40;;;;;;;9.68;3.95;;;25.30;53.90;;;;;;6120945;28;82937;-50
2023/09/05 15:36:41;;;;;;;7.78;3.88;;;25.30;54.10;;;;;;6132687;28;86648;-50
2023/09/05 15:39:42;;;;;;;9.80;4.13;;;25.20;54.20;;;;;;6128959;28;80547;-47